Godley, Illinois
Current Conditions -  °F | °C
As of 12:15 PM on Sunday 25 Jan 2015 (Local Time) from KC09 Reporting Station
Light Snow Light Snow  
Wind Chill: 25°   Ceiling: 900
Heat Index: 33°   Visibility: 3mi
Dew Point: 32°   Wind: 10mph
Humidity: 96%   Direction: 40°NE
Pressure: 29.75"   Gusts: 17mph
Location:  41.2302°N, 88.2734°W
Report Text: KC09 251815Z AUTO 04009G15KT 3SM -SN OVC009 01/00 A2975 RMK AO2 T00050000
Loading
Personal Weather Stations






























Interactive Weather Map New forecast layout! Learn more

10-Day Weather Forecast

Advertisements
Track Severe Weather on mobile